sensor_id;sensor_type;location;lat;lon;timestamp;P1;durP1;ratioP1;P2;durP2;ratioP2
63050;SDS011;49136;47.416;19.402;2022-12-07T00:01:24;10.32;;;5.80;;
63050;SDS011;49136;47.416;19.402;2022-12-07T00:03:58;12.55;;;6.35;;
63050;SDS011;49136;47.416;19.402;2022-12-07T00:08:57;6.15;;;4.45;;
63050;SDS011;49136;47.416;19.402;2022-12-07T00:11:23;30.10;;;8.38;;
63050;SDS011;49136;47.416;19.402;2022-12-07T00:13:53;13.38;;;7.22;;
63050;SDS011;49136;47.416;19.402;2022-12-07T00:16:20;35.58;;;9.60;;
63050;SDS011;49136;47.416;19.402;2022-12-07T00:18:48;14.23;;;6.43;;
63050;SDS011;49136;47.416;19.402;2022-12-07T00:21:14;9.43;;;6.20;;
63050;SDS011;49136;47.416;19.402;2022-12-07T00:23:42;13.60;;;6.38;;
63050;SDS011;49136;47.416;19.402;2022-12-07T00:26:10;9.45;;;4.18;;
63050;SDS011;49136;47.416;19.402;2022-12-07T00:28:52;7.72;;;5.53;;
63050;SDS011;49136;47.416;19.402;2022-12-07T00:31:20;14.80;;;6.65;;
63050;SDS011;49136;47.416;19.402;2022-12-07T00:33:47;9.38;;;5.65;;
63050;SDS011;49136;47.416;19.402;2022-12-07T00:36:14;12.18;;;7.05;;
63050;SDS011;49136;47.416;19.402;2022-12-07T00:38:42;33.15;;;6.60;;
63050;SDS011;49136;47.416;19.402;2022-12-07T00:41:12;12.68;;;6.60;;
63050;SDS011;49136;47.416;19.402;2022-12-07T00:43:41;9.73;;;5.65;;
63050;SDS011;49136;47.416;19.402;2022-12-07T00:46:08;15.90;;;6.03;;
63050;SDS011;49136;47.416;19.402;2022-12-07T00:48:33;16.77;;;6.28;;
63050;SDS011;49136;47.416;19.402;2022-12-07T00:50:59;9.30;;;5.45;;
63050;SDS011;49136;47.416;19.402;2022-12-07T00:53:26;7.32;;;4.72;;
63050;SDS011;49136;47.416;19.402;2022-12-07T00:55:52;18.50;;;6.35;;
63050;SDS011;49136;47.416;19.402;2022-12-07T00:58:17;6.68;;;3.95;;
63050;SDS011;49136;47.416;19.402;2022-12-07T01:00:43;6.55;;;4.35;;
63050;SDS011;49136;47.416;19.402;2022-12-07T01:03:09;9.20;;;6.40;;
63050;SDS011;49136;47.416;19.402;2022-12-07T01:05:36;10.43;;;6.28;;
63050;SDS011;49136;47.416;19.402;2022-12-07T01:08:02;6.10;;;3.13;;
63050;SDS011;49136;47.416;19.402;2022-12-07T01:10:28;10.52;;;4.28;;
63050;SDS011;49136;47.416;19.402;2022-12-07T01:12:55;24.65;;;5.93;;
63050;SDS011;49136;47.416;19.402;2022-12-07T01:15:21;12.10;;;6.30;;
63050;SDS011;49136;47.416;19.402;2022-12-07T01:17:47;12.15;;;6.50;;
63050;SDS011;49136;47.416;19.402;2022-12-07T01:20:12;32.92;;;7.50;;
63050;SDS011;49136;47.416;19.402;2022-12-07T01:22:39;19.75;;;8.13;;
63050;SDS011;49136;47.416;19.402;2022-12-07T01:25:05;17.08;;;5.57;;
63050;SDS011;49136;47.416;19.402;2022-12-07T01:27:32;10.85;;;7.00;;
63050;SDS011;49136;47.416;19.402;2022-12-07T01:29:58;12.15;;;5.13;;
63050;SDS011;49136;47.416;19.402;2022-12-07T01:32:23;10.32;;;5.22;;
63050;SDS011;49136;47.416;19.402;2022-12-07T01:34:48;13.15;;;6.35;;
63050;SDS011;49136;47.416;19.402;2022-12-07T01:37:14;8.90;;;5.95;;
63050;SDS011;49136;47.416;19.402;2022-12-07T01:39:39;13.90;;;6.60;;
63050;SDS011;49136;47.416;19.402;2022-12-07T01:42:08;14.15;;;6.90;;
63050;SDS011;49136;47.416;19.402;2022-12-07T01:47:38;13.18;;;5.47;;
63050;SDS011;49136;47.416;19.402;2022-12-07T01:50:04;13.65;;;6.72;;
63050;SDS011;49136;47.416;19.402;2022-12-07T01:52:30;25.10;;;8.25;;
63050;SDS011;49136;47.416;19.402;2022-12-07T01:54:59;19.10;;;6.82;;
63050;SDS011;49136;47.416;19.402;2022-12-07T01:57:28;10.80;;;5.50;;
63050;SDS011;49136;47.416;19.402;2022-12-07T01:59:55;13.60;;;7.72;;
63050;SDS011;49136;47.416;19.402;2022-12-07T02:02:24;14.07;;;6.95;;
63050;SDS011;49136;47.416;19.402;2022-12-07T02:04:53;13.15;;;7.35;;
63050;SDS011;49136;47.416;19.402;2022-12-07T02:07:20;6.72;;;5.13;;
63050;SDS011;49136;47.416;19.402;2022-12-07T02:09:47;15.70;;;7.20;;
63050;SDS011;49136;47.416;19.402;2022-12-07T02:12:13;11.75;;;7.00;;
63050;SDS011;49136;47.416;19.402;2022-12-07T02:14:38;12.95;;;6.40;;
63050;SDS011;49136;47.416;19.402;2022-12-07T02:25:59;10.40;;;5.03;;
63050;SDS011;49136;47.416;19.402;2022-12-07T02:31:28;2.80;;;2.22;;
63050;SDS011;49136;47.416;19.402;2022-12-07T02:34:04;15.60;;;5.53;;
63050;SDS011;49136;47.416;19.402;2022-12-07T02:36:37;8.68;;;3.95;;
63050;SDS011;49136;47.416;19.402;2022-12-07T02:41:36;10.82;;;4.93;;
63050;SDS011;49136;47.416;19.402;2022-12-07T02:44:08;21.70;;;5.45;;
63050;SDS011;49136;47.416;19.402;2022-12-07T02:46:42;9.75;;;4.82;;
63050;SDS011;49136;47.416;19.402;2022-12-07T02:49:12;11.63;;;6.38;;
63050;SDS011;49136;47.416;19.402;2022-12-07T02:51:41;10.70;;;6.55;;
63050;SDS011;49136;47.416;19.402;2022-12-07T02:54:12;11.05;;;6.18;;
63050;SDS011;49136;47.416;19.402;2022-12-07T02:56:41;8.35;;;5.90;;
63050;SDS011;49136;47.416;19.402;2022-12-07T03:07:48;14.60;;;6.57;;
63050;SDS011;49136;47.416;19.402;2022-12-07T03:13:23;21.90;;;7.28;;
63050;SDS011;49136;47.416;19.402;2022-12-07T03:16:07;9.52;;;6.93;;
63050;SDS011;49136;47.416;19.402;2022-12-07T03:21:36;16.48;;;7.85;;
63050;SDS011;49136;47.416;19.402;2022-12-07T03:24:08;19.92;;;7.00;;
63050;SDS011;49136;47.416;19.402;2022-12-07T03:29:06;12.93;;;4.18;;
63050;SDS011;49136;47.416;19.402;2022-12-07T03:31:38;9.93;;;4.80;;
63050;SDS011;49136;47.416;19.402;2022-12-07T03:34:10;12.98;;;6.10;;
63050;SDS011;49136;47.416;19.402;2022-12-07T03:36:56;17.83;;;8.32;;
63050;SDS011;49136;47.416;19.402;2022-12-07T03:42:12;7.78;;;5.43;;
63050;SDS011;49136;47.416;19.402;2022-12-07T03:44:38;14.07;;;7.97;;
63050;SDS011;49136;47.416;19.402;2022-12-07T03:54:49;9.90;;;6.30;;
63050;SDS011;49136;47.416;19.402;2022-12-07T03:57:21;13.65;;;7.32;;
63050;SDS011;49136;47.416;19.402;2022-12-07T03:59:49;26.10;;;8.45;;
63050;SDS011;49136;47.416;19.402;2022-12-07T04:02:16;17.27;;;9.35;;
63050;SDS011;49136;47.416;19.402;2022-12-07T04:04:41;28.10;;;8.88;;
63050;SDS011;49136;47.416;19.402;2022-12-07T04:07:08;15.60;;;9.00;;
63050;SDS011;49136;47.416;19.402;2022-12-07T04:09:34;24.45;;;8.93;;
63050;SDS011;49136;47.416;19.402;2022-12-07T04:11:59;18.23;;;7.43;;
63050;SDS011;49136;47.416;19.402;2022-12-07T04:14:25;16.30;;;7.45;;
63050;SDS011;49136;47.416;19.402;2022-12-07T04:16:51;27.75;;;8.60;;
63050;SDS011;49136;47.416;19.402;2022-12-07T04:19:19;30.85;;;10.57;;
63050;SDS011;49136;47.416;19.402;2022-12-07T04:21:46;18.77;;;9.27;;
63050;SDS011;49136;47.416;19.402;2022-12-07T04:24:13;27.92;;;8.65;;
63050;SDS011;49136;47.416;19.402;2022-12-07T04:26:39;13.45;;;7.18;;
63050;SDS011;49136;47.416;19.402;2022-12-07T04:29:05;17.17;;;8.77;;
63050;SDS011;49136;47.416;19.402;2022-12-07T04:31:31;24.17;;;8.10;;
63050;SDS011;49136;47.416;19.402;2022-12-07T04:33:56;14.48;;;6.80;;
63050;SDS011;49136;47.416;19.402;2022-12-07T04:36:22;19.25;;;8.50;;
63050;SDS011;49136;47.416;19.402;2022-12-07T04:38:47;18.08;;;7.13;;
63050;SDS011;49136;47.416;19.402;2022-12-07T04:41:13;26.48;;;10.38;;
63050;SDS011;49136;47.416;19.402;2022-12-07T04:43:39;19.02;;;8.55;;
63050;SDS011;49136;47.416;19.402;2022-12-07T04:46:04;18.48;;;9.80;;
63050;SDS011;49136;47.416;19.402;2022-12-07T04:48:30;17.77;;;9.73;;
63050;SDS011;49136;47.416;19.402;2022-12-07T04:50:55;23.38;;;9.52;;
63050;SDS011;49136;47.416;19.402;2022-12-07T04:53:21;29.73;;;10.32;;
63050;SDS011;49136;47.416;19.402;2022-12-07T04:55:47;19.08;;;8.88;;
63050;SDS011;49136;47.416;19.402;2022-12-07T04:58:13;37.92;;;9.02;;
63050;SDS011;49136;47.416;19.402;2022-12-07T05:00:39;25.33;;;8.88;;
63050;SDS011;49136;47.416;19.402;2022-12-07T05:03:04;17.65;;;8.40;;
63050;SDS011;49136;47.416;19.402;2022-12-07T05:05:30;29.88;;;11.27;;
63050;SDS011;49136;47.416;19.402;2022-12-07T05:07:56;21.05;;;8.88;;
63050;SDS011;49136;47.416;19.402;2022-12-07T05:10:21;21.50;;;8.23;;
63050;SDS011;49136;47.416;19.402;2022-12-07T05:12:47;15.00;;;8.52;;
63050;SDS011;49136;47.416;19.402;2022-12-07T05:15:13;25.38;;;12.20;;
63050;SDS011;49136;47.416;19.402;2022-12-07T05:17:39;15.05;;;9.30;;
63050;SDS011;49136;47.416;19.402;2022-12-07T05:20:05;16.80;;;8.07;;
63050;SDS011;49136;47.416;19.402;2022-12-07T05:22:31;31.13;;;12.05;;
63050;SDS011;49136;47.416;19.402;2022-12-07T05:24:57;22.05;;;9.13;;
63050;SDS011;49136;47.416;19.402;2022-12-07T05:27:22;20.15;;;9.07;;
63050;SDS011;49136;47.416;19.402;2022-12-07T05:29:49;18.30;;;7.22;;
63050;SDS011;49136;47.416;19.402;2022-12-07T05:32:15;17.25;;;8.85;;
63050;SDS011;49136;47.416;19.402;2022-12-07T05:34:41;26.88;;;10.52;;
63050;SDS011;49136;47.416;19.402;2022-12-07T05:37:06;20.17;;;8.88;;
63050;SDS011;49136;47.416;19.402;2022-12-07T05:39:31;22.33;;;9.85;;
63050;SDS011;49136;47.416;19.402;2022-12-07T05:41:57;32.05;;;12.52;;
63050;SDS011;49136;47.416;19.402;2022-12-07T05:44:41;26.13;;;11.57;;
63050;SDS011;49136;47.416;19.402;2022-12-07T05:47:08;13.80;;;8.32;;
63050;SDS011;49136;47.416;19.402;2022-12-07T05:49:33;26.98;;;10.45;;
63050;SDS011;49136;47.416;19.402;2022-12-07T05:51:59;14.43;;;9.38;;
63050;SDS011;49136;47.416;19.402;2022-12-07T05:54:24;21.13;;;11.52;;
63050;SDS011;49136;47.416;19.402;2022-12-07T05:56:50;20.27;;;7.32;;
63050;SDS011;49136;47.416;19.402;2022-12-07T05:59:15;16.15;;;10.27;;
63050;SDS011;49136;47.416;19.402;2022-12-07T06:01:47;25.50;;;10.95;;
63050;SDS011;49136;47.416;19.402;2022-12-07T06:04:13;21.98;;;9.57;;
63050;SDS011;49136;47.416;19.402;2022-12-07T06:06:39;18.23;;;9.68;;
63050;SDS011;49136;47.416;19.402;2022-12-07T06:09:04;19.20;;;8.70;;
63050;SDS011;49136;47.416;19.402;2022-12-07T06:11:30;33.90;;;11.32;;
63050;SDS011;49136;47.416;19.402;2022-12-07T06:14:14;23.42;;;8.80;;
63050;SDS011;49136;47.416;19.402;2022-12-07T06:16:39;18.38;;;9.00;;
63050;SDS011;49136;47.416;19.402;2022-12-07T06:19:05;23.67;;;7.93;;
63050;SDS011;49136;47.416;19.402;2022-12-07T06:21:30;16.73;;;7.15;;
63050;SDS011;49136;47.416;19.402;2022-12-07T06:23:56;10.38;;;6.32;;
63050;SDS011;49136;47.416;19.402;2022-12-07T06:26:21;17.63;;;8.80;;
63050;SDS011;49136;47.416;19.402;2022-12-07T06:28:47;18.88;;;9.38;;
63050;SDS011;49136;47.416;19.402;2022-12-07T06:31:12;17.25;;;9.20;;
63050;SDS011;49136;47.416;19.402;2022-12-07T06:33:38;16.75;;;6.90;;
63050;SDS011;49136;47.416;19.402;2022-12-07T06:36:03;20.90;;;8.00;;
63050;SDS011;49136;47.416;19.402;2022-12-07T06:38:29;17.05;;;7.72;;
63050;SDS011;49136;47.416;19.402;2022-12-07T06:40:54;17.90;;;6.80;;
63050;SDS011;49136;47.416;19.402;2022-12-07T06:43:20;13.65;;;7.93;;
63050;SDS011;49136;47.416;19.402;2022-12-07T06:45:45;18.38;;;7.72;;
63050;SDS011;49136;47.416;19.402;2022-12-07T06:48:11;23.25;;;10.40;;
63050;SDS011;49136;47.416;19.402;2022-12-07T06:50:36;16.17;;;7.35;;
63050;SDS011;49136;47.416;19.402;2022-12-07T06:53:02;18.98;;;9.43;;
63050;SDS011;49136;47.416;19.402;2022-12-07T06:55:27;23.13;;;9.50;;
63050;SDS011;49136;47.416;19.402;2022-12-07T06:57:53;24.05;;;10.23;;
63050;SDS011;49136;47.416;19.402;2022-12-07T07:00:18;20.92;;;9.07;;
63050;SDS011;49136;47.416;19.402;2022-12-07T07:02:44;16.48;;;7.32;;
63050;SDS011;49136;47.416;19.402;2022-12-07T07:05:09;14.45;;;7.93;;
63050;SDS011;49136;47.416;19.402;2022-12-07T07:07:35;15.10;;;7.88;;
63050;SDS011;49136;47.416;19.402;2022-12-07T07:10:00;18.02;;;7.28;;
63050;SDS011;49136;47.416;19.402;2022-12-07T07:12:25;23.67;;;11.15;;
63050;SDS011;49136;47.416;19.402;2022-12-07T07:14:51;15.18;;;8.63;;
63050;SDS011;49136;47.416;19.402;2022-12-07T07:17:16;20.27;;;9.68;;
63050;SDS011;49136;47.416;19.402;2022-12-07T07:19:42;22.65;;;9.85;;
63050;SDS011;49136;47.416;19.402;2022-12-07T07:22:07;23.50;;;11.77;;
63050;SDS011;49136;47.416;19.402;2022-12-07T07:24:33;23.30;;;10.55;;
63050;SDS011;49136;47.416;19.402;2022-12-07T07:26:58;16.90;;;8.85;;
63050;SDS011;49136;47.416;19.402;2022-12-07T07:29:23;21.23;;;10.88;;
63050;SDS011;49136;47.416;19.402;2022-12-07T07:31:49;14.77;;;8.48;;
63050;SDS011;49136;47.416;19.402;2022-12-07T07:34:14;33.90;;;10.90;;
63050;SDS011;49136;47.416;19.402;2022-12-07T07:36:40;26.67;;;10.90;;
63050;SDS011;49136;47.416;19.402;2022-12-07T07:39:05;27.73;;;11.25;;
63050;SDS011;49136;47.416;19.402;2022-12-07T07:41:31;24.10;;;11.18;;
63050;SDS011;49136;47.416;19.402;2022-12-07T07:43:56;20.63;;;10.15;;
63050;SDS011;49136;47.416;19.402;2022-12-07T07:46:22;43.65;;;17.58;;
63050;SDS011;49136;47.416;19.402;2022-12-07T07:48:47;34.85;;;12.65;;
63050;SDS011;49136;47.416;19.402;2022-12-07T07:51:13;42.13;;;10.48;;
63050;SDS011;49136;47.416;19.402;2022-12-07T07:53:38;20.48;;;11.68;;
63050;SDS011;49136;47.416;19.402;2022-12-07T07:56:03;15.75;;;8.63;;
63050;SDS011;49136;47.416;19.402;2022-12-07T07:58:29;23.30;;;10.45;;
63050;SDS011;49136;47.416;19.402;2022-12-07T08:00:54;22.30;;;11.45;;
63050;SDS011;49136;47.416;19.402;2022-12-07T08:03:20;14.35;;;8.18;;
63050;SDS011;49136;47.416;19.402;2022-12-07T08:05:45;20.92;;;9.02;;
63050;SDS011;49136;47.416;19.402;2022-12-07T08:08:11;18.92;;;9.90;;
63050;SDS011;49136;47.416;19.402;2022-12-07T08:10:36;20.13;;;9.15;;
63050;SDS011;49136;47.416;19.402;2022-12-07T08:13:02;19.23;;;9.75;;
63050;SDS011;49136;47.416;19.402;2022-12-07T08:15:38;23.40;;;8.45;;
63050;SDS011;49136;47.416;19.402;2022-12-07T08:18:05;42.95;;;12.13;;
63050;SDS011;49136;47.416;19.402;2022-12-07T08:20:31;23.60;;;9.48;;
63050;SDS011;49136;47.416;19.402;2022-12-07T08:22:57;26.48;;;11.23;;
63050;SDS011;49136;47.416;19.402;2022-12-07T08:25:23;20.85;;;10.63;;
63050;SDS011;49136;47.416;19.402;2022-12-07T08:27:49;32.00;;;12.52;;
63050;SDS011;49136;47.416;19.402;2022-12-07T08:30:16;22.80;;;11.30;;
63050;SDS011;49136;47.416;19.402;2022-12-07T08:32:41;39.53;;;14.30;;
63050;SDS011;49136;47.416;19.402;2022-12-07T08:35:07;24.27;;;11.77;;
63050;SDS011;49136;47.416;19.402;2022-12-07T08:37:33;25.63;;;10.73;;
63050;SDS011;49136;47.416;19.402;2022-12-07T08:39:58;21.35;;;10.20;;
63050;SDS011;49136;47.416;19.402;2022-12-07T08:42:24;18.30;;;10.55;;
63050;SDS011;49136;47.416;19.402;2022-12-07T08:44:55;26.33;;;9.25;;
63050;SDS011;49136;47.416;19.402;2022-12-07T08:47:22;26.60;;;11.27;;
63050;SDS011;49136;47.416;19.402;2022-12-07T08:49:49;35.10;;;11.00;;
63050;SDS011;49136;47.416;19.402;2022-12-07T08:52:17;21.45;;;11.05;;
63050;SDS011;49136;47.416;19.402;2022-12-07T08:54:43;26.25;;;11.07;;
63050;SDS011;49136;47.416;19.402;2022-12-07T08:57:09;26.52;;;11.77;;
63050;SDS011;49136;47.416;19.402;2022-12-07T08:59:36;28.25;;;10.60;;
63050;SDS011;49136;47.416;19.402;2022-12-07T09:02:02;21.02;;;10.30;;
63050;SDS011;49136;47.416;19.402;2022-12-07T09:04:28;24.75;;;9.88;;
63050;SDS011;49136;47.416;19.402;2022-12-07T09:06:54;27.88;;;10.05;;
63050;SDS011;49136;47.416;19.402;2022-12-07T09:09:20;28.65;;;12.38;;
63050;SDS011;49136;47.416;19.402;2022-12-07T09:11:45;28.70;;;11.55;;
63050;SDS011;49136;47.416;19.402;2022-12-07T09:14:11;35.10;;;13.68;;
63050;SDS011;49136;47.416;19.402;2022-12-07T09:16:37;29.33;;;10.35;;
63050;SDS011;49136;47.416;19.402;2022-12-07T09:19:03;34.80;;;12.45;;
63050;SDS011;49136;47.416;19.402;2022-12-07T09:21:29;24.88;;;11.23;;
63050;SDS011;49136;47.416;19.402;2022-12-07T09:23:55;30.17;;;10.45;;
63050;SDS011;49136;47.416;19.402;2022-12-07T09:26:20;35.72;;;11.77;;
63050;SDS011;49136;47.416;19.402;2022-12-07T09:28:46;31.45;;;11.38;;
63050;SDS011;49136;47.416;19.402;2022-12-07T09:31:11;27.40;;;12.13;;
63050;SDS011;49136;47.416;19.402;2022-12-07T09:33:36;25.80;;;11.43;;
63050;SDS011;49136;47.416;19.402;2022-12-07T09:36:03;28.63;;;11.77;;
63050;SDS011;49136;47.416;19.402;2022-12-07T09:38:29;35.92;;;13.15;;
63050;SDS011;49136;47.416;19.402;2022-12-07T09:40:55;34.67;;;14.82;;
63050;SDS011;49136;47.416;19.402;2022-12-07T09:43:24;30.50;;;10.15;;
63050;SDS011;49136;47.416;19.402;2022-12-07T09:45:51;31.35;;;14.65;;
63050;SDS011;49136;47.416;19.402;2022-12-07T09:48:20;31.23;;;13.63;;
63050;SDS011;49136;47.416;19.402;2022-12-07T09:50:57;28.15;;;11.68;;
63050;SDS011;49136;47.416;19.402;2022-12-07T09:55:55;24.63;;;12.75;;
63050;SDS011;49136;47.416;19.402;2022-12-07T09:58:25;30.80;;;12.55;;
63050;SDS011;49136;47.416;19.402;2022-12-07T10:03:23;21.00;;;11.18;;
63050;SDS011;49136;47.416;19.402;2022-12-07T10:05:51;18.55;;;9.57;;
63050;SDS011;49136;47.416;19.402;2022-12-07T10:08:18;22.77;;;9.70;;
63050;SDS011;49136;47.416;19.402;2022-12-07T10:10:44;29.45;;;11.65;;
63050;SDS011;49136;47.416;19.402;2022-12-07T10:13:12;28.15;;;12.05;;
63050;SDS011;49136;47.416;19.402;2022-12-07T10:18:16;29.58;;;13.27;;
63050;SDS011;49136;47.416;19.402;2022-12-07T10:21:04;35.58;;;12.80;;
63050;SDS011;49136;47.416;19.402;2022-12-07T10:23:34;30.00;;;13.13;;
63050;SDS011;49136;47.416;19.402;2022-12-07T10:26:18;25.77;;;13.40;;
63050;SDS011;49136;47.416;19.402;2022-12-07T10:28:46;27.65;;;12.30;;
63050;SDS011;49136;47.416;19.402;2022-12-07T10:31:16;33.17;;;13.35;;
63050;SDS011;49136;47.416;19.402;2022-12-07T10:33:54;28.83;;;13.35;;
63050;SDS011;49136;47.416;19.402;2022-12-07T10:36:26;28.67;;;12.45;;
63050;SDS011;49136;47.416;19.402;2022-12-07T10:41:35;29.50;;;12.60;;
63050;SDS011;49136;47.416;19.402;2022-12-07T10:44:03;29.17;;;11.80;;
63050;SDS011;49136;47.416;19.402;2022-12-07T10:46:46;30.60;;;12.30;;
63050;SDS011;49136;47.416;19.402;2022-12-07T10:52:16;30.08;;;12.32;;
63050;SDS011;49136;47.416;19.402;2022-12-07T11:00:43;28.80;;;11.18;;
63050;SDS011;49136;47.416;19.402;2022-12-07T11:03:30;24.08;;;11.63;;
63050;SDS011;49136;47.416;19.402;2022-12-07T11:11:30;30.50;;;11.93;;
63050;SDS011;49136;47.416;19.402;2022-12-07T11:24:35;30.45;;;13.35;;
63050;SDS011;49136;47.416;19.402;2022-12-07T11:35:18;24.83;;;11.48;;
63050;SDS011;49136;47.416;19.402;2022-12-07T11:37:58;28.27;;;12.77;;
63050;SDS011;49136;47.416;19.402;2022-12-07T11:40:30;27.85;;;11.90;;
63050;SDS011;49136;47.416;19.402;2022-12-07T11:43:06;26.75;;;11.15;;
63050;SDS011;49136;47.416;19.402;2022-12-07T11:45:41;32.38;;;11.68;;
63050;SDS011;49136;47.416;19.402;2022-12-07T11:51:23;27.00;;;11.10;;
63050;SDS011;49136;47.416;19.402;2022-12-07T11:56:22;30.65;;;11.65;;
63050;SDS011;49136;47.416;19.402;2022-12-07T12:03:54;24.30;;;10.57;;
63050;SDS011;49136;47.416;19.402;2022-12-07T12:06:25;28.70;;;12.45;;
63050;SDS011;49136;47.416;19.402;2022-12-07T12:09:00;27.92;;;12.05;;
63050;SDS011;49136;47.416;19.402;2022-12-07T12:20:48;18.83;;;7.18;;
63050;SDS011;49136;47.416;19.402;2022-12-07T12:23:18;22.92;;;11.23;;
63050;SDS011;49136;47.416;19.402;2022-12-07T12:25:50;21.20;;;9.73;;
63050;SDS011;49136;47.416;19.402;2022-12-07T12:28:40;16.38;;;8.32;;
63050;SDS011;49136;47.416;19.402;2022-12-07T12:33:57;16.73;;;8.25;;
63050;SDS011;49136;47.416;19.402;2022-12-07T12:36:46;18.52;;;8.90;;
63050;SDS011;49136;47.416;19.402;2022-12-07T12:39:15;19.30;;;9.02;;
63050;SDS011;49136;47.416;19.402;2022-12-07T12:46:44;19.88;;;8.45;;
63050;SDS011;49136;47.416;19.402;2022-12-07T12:51:47;19.70;;;8.50;;
63050;SDS011;49136;47.416;19.402;2022-12-07T13:18:02;20.58;;;7.30;;
63050;SDS011;49136;47.416;19.402;2022-12-07T13:20:56;10.02;;;4.82;;
63050;SDS011;49136;47.416;19.402;2022-12-07T13:28:37;11.15;;;5.63;;
63050;SDS011;49136;47.416;19.402;2022-12-07T13:33:53;15.02;;;5.68;;
63050;SDS011;49136;47.416;19.402;2022-12-07T13:38:58;12.75;;;5.95;;
63050;SDS011;49136;47.416;19.402;2022-12-07T13:41:28;13.77;;;6.78;;
63050;SDS011;49136;47.416;19.402;2022-12-07T13:44:00;18.55;;;6.80;;
63050;SDS011;49136;47.416;19.402;2022-12-07T13:49:24;13.80;;;6.53;;
63050;SDS011;49136;47.416;19.402;2022-12-07T13:51:51;14.63;;;6.30;;
63050;SDS011;49136;47.416;19.402;2022-12-07T13:54:19;14.93;;;6.20;;
63050;SDS011;49136;47.416;19.402;2022-12-07T13:56:47;12.13;;;6.68;;
63050;SDS011;49136;47.416;19.402;2022-12-07T13:59:21;15.80;;;7.15;;
63050;SDS011;49136;47.416;19.402;2022-12-07T14:01:49;16.48;;;7.07;;
63050;SDS011;49136;47.416;19.402;2022-12-07T14:06:50;10.82;;;6.03;;
63050;SDS011;49136;47.416;19.402;2022-12-07T14:11:50;17.80;;;6.78;;
63050;SDS011;49136;47.416;19.402;2022-12-07T14:14:22;15.05;;;6.28;;
63050;SDS011;49136;47.416;19.402;2022-12-07T14:16:57;14.80;;;6.60;;
63050;SDS011;49136;47.416;19.402;2022-12-07T14:27:57;12.73;;;5.25;;
63050;SDS011;49136;47.416;19.402;2022-12-07T14:30:26;19.40;;;5.38;;
63050;SDS011;49136;47.416;19.402;2022-12-07T14:32:55;12.25;;;5.55;;
63050;SDS011;49136;47.416;19.402;2022-12-07T14:35:23;19.13;;;7.70;;
63050;SDS011;49136;47.416;19.402;2022-12-07T14:37:49;14.85;;;6.25;;
63050;SDS011;49136;47.416;19.402;2022-12-07T14:40:17;33.60;;;8.95;;
63050;SDS011;49136;47.416;19.402;2022-12-07T14:42:45;24.80;;;10.02;;
63050;SDS011;49136;47.416;19.402;2022-12-07T14:45:18;25.35;;;10.10;;
63050;SDS011;49136;47.416;19.402;2022-12-07T14:47:45;31.52;;;10.27;;
63050;SDS011;49136;47.416;19.402;2022-12-07T14:50:12;34.90;;;9.82;;
63050;SDS011;49136;47.416;19.402;2022-12-07T14:52:39;20.50;;;7.22;;
63050;SDS011;49136;47.416;19.402;2022-12-07T14:55:12;17.15;;;7.28;;
63050;SDS011;49136;47.416;19.402;2022-12-07T14:57:39;25.95;;;9.88;;
63050;SDS011;49136;47.416;19.402;2022-12-07T15:00:04;21.05;;;8.43;;
63050;SDS011;49136;47.416;19.402;2022-12-07T15:02:30;18.95;;;7.50;;
63050;SDS011;49136;47.416;19.402;2022-12-07T15:04:56;22.33;;;9.05;;
63050;SDS011;49136;47.416;19.402;2022-12-07T15:07:21;15.88;;;8.18;;
63050;SDS011;49136;47.416;19.402;2022-12-07T15:09:47;19.63;;;9.25;;
63050;SDS011;49136;47.416;19.402;2022-12-07T15:12:13;27.30;;;8.10;;
63050;SDS011;49136;47.416;19.402;2022-12-07T15:14:38;21.55;;;10.65;;
63050;SDS011;49136;47.416;19.402;2022-12-07T15:17:04;22.83;;;9.63;;
63050;SDS011;49136;47.416;19.402;2022-12-07T15:19:29;30.35;;;12.60;;
63050;SDS011;49136;47.416;19.402;2022-12-07T15:21:55;22.70;;;10.65;;
63050;SDS011;49136;47.416;19.402;2022-12-07T15:24:21;32.38;;;13.73;;
63050;SDS011;49136;47.416;19.402;2022-12-07T15:26:48;23.13;;;12.73;;
63050;SDS011;49136;47.416;19.402;2022-12-07T15:29:14;20.80;;;11.95;;
63050;SDS011;49136;47.416;19.402;2022-12-07T15:31:40;40.78;;;12.77;;
63050;SDS011;49136;47.416;19.402;2022-12-07T15:34:06;26.95;;;13.45;;
63050;SDS011;49136;47.416;19.402;2022-12-07T15:36:32;27.13;;;14.25;;
63050;SDS011;49136;47.416;19.402;2022-12-07T15:38:59;33.67;;;13.93;;
63050;SDS011;49136;47.416;19.402;2022-12-07T15:41:25;25.67;;;12.55;;
63050;SDS011;49136;47.416;19.402;2022-12-07T15:43:51;33.33;;;11.63;;
63050;SDS011;49136;47.416;19.402;2022-12-07T15:46:36;33.03;;;12.57;;
63050;SDS011;49136;47.416;19.402;2022-12-07T15:49:12;27.63;;;13.15;;
63050;SDS011;49136;47.416;19.402;2022-12-07T15:51:41;31.05;;;14.18;;
63050;SDS011;49136;47.416;19.402;2022-12-07T15:54:07;32.75;;;14.10;;
63050;SDS011;49136;47.416;19.402;2022-12-07T15:56:37;20.50;;;11.13;;
63050;SDS011;49136;47.416;19.402;2022-12-07T15:59:03;27.60;;;11.70;;
63050;SDS011;49136;47.416;19.402;2022-12-07T16:01:28;28.58;;;11.80;;
63050;SDS011;49136;47.416;19.402;2022-12-07T16:03:53;23.75;;;10.15;;
63050;SDS011;49136;47.416;19.402;2022-12-07T16:06:19;24.45;;;10.75;;
63050;SDS011;49136;47.416;19.402;2022-12-07T16:08:45;29.25;;;10.63;;
63050;SDS011;49136;47.416;19.402;2022-12-07T16:11:12;29.00;;;8.52;;
63050;SDS011;49136;47.416;19.402;2022-12-07T16:13:38;23.20;;;10.88;;
63050;SDS011;49136;47.416;19.402;2022-12-07T16:16:09;21.48;;;10.15;;
63050;SDS011;49136;47.416;19.402;2022-12-07T16:18:37;19.45;;;7.60;;
63050;SDS011;49136;47.416;19.402;2022-12-07T16:21:03;27.80;;;11.48;;
63050;SDS011;49136;47.416;19.402;2022-12-07T16:23:29;26.15;;;10.23;;
63050;SDS011;49136;47.416;19.402;2022-12-07T16:25:54;66.05;;;24.95;;
63050;SDS011;49136;47.416;19.402;2022-12-07T16:28:28;54.00;;;24.55;;
63050;SDS011;49136;47.416;19.402;2022-12-07T16:30:59;40.13;;;16.15;;
63050;SDS011;49136;47.416;19.402;2022-12-07T16:33:26;34.20;;;15.63;;
63050;SDS011;49136;47.416;19.402;2022-12-07T16:35:51;32.13;;;15.07;;
63050;SDS011;49136;47.416;19.402;2022-12-07T16:38:16;67.25;;;22.98;;
63050;SDS011;49136;47.416;19.402;2022-12-07T16:40:42;53.47;;;23.73;;
63050;SDS011;49136;47.416;19.402;2022-12-07T16:43:07;48.30;;;20.90;;
63050;SDS011;49136;47.416;19.402;2022-12-07T16:48:04;44.35;;;17.52;;
63050;SDS011;49136;47.416;19.402;2022-12-07T16:50:30;36.42;;;17.70;;
63050;SDS011;49136;47.416;19.402;2022-12-07T16:52:55;42.67;;;17.92;;
63050;SDS011;49136;47.416;19.402;2022-12-07T16:55:21;46.58;;;18.75;;
63050;SDS011;49136;47.416;19.402;2022-12-07T16:57:46;45.92;;;17.60;;
63050;SDS011;49136;47.416;19.402;2022-12-07T17:00:11;56.22;;;17.77;;
63050;SDS011;49136;47.416;19.402;2022-12-07T17:02:37;37.00;;;15.35;;
63050;SDS011;49136;47.416;19.402;2022-12-07T17:05:03;34.30;;;13.90;;
63050;SDS011;49136;47.416;19.402;2022-12-07T17:07:29;21.92;;;12.80;;
63050;SDS011;49136;47.416;19.402;2022-12-07T17:09:54;40.00;;;15.85;;
63050;SDS011;49136;47.416;19.402;2022-12-07T17:12:20;33.33;;;16.05;;
63050;SDS011;49136;47.416;19.402;2022-12-07T17:14:45;53.25;;;18.42;;